地図

経路データ

SID SEASON NUMBER BASIN SUBBASIN NAME ISO_TIME NATURE LAT LON WMO_WIND WMO_PRES WMO_AGENCY TRACK_TYPE DIST2LAND LANDFALL IFLAG USA_AGENCY USA_ATCF_ID USA_LAT USA_LON USA_RECORD USA_STATUS USA_WIND USA_PRES USA_SSHS USA_R34_NE USA_R34_SE USA_R34_SW USA_R34_NW USA_R50_NE USA_R50_SE USA_R50_SW USA_R50_NW USA_R64_NE USA_R64_SE USA_R64_SW USA_R64_NW USA_POCI USA_ROCI USA_RMW USA_EYE TOKYO_LAT TOKYO_LON TOKYO_GRADE TOKYO_WIND TOKYO_PRES TOKYO_R50_DIR TOKYO_R50_LONG TOKYO_R50_SHORT TOKYO_R30_DIR TOKYO_R30_LONG TOKYO_R30_SHORT TOKYO_LAND CMA_LAT CMA_LON CMA_CAT CMA_WIND CMA_PRES HKO_LAT HKO_LON HKO_CAT HKO_WIND HKO_PRES NEWDELHI_LAT NEWDELHI_LON NEWDELHI_GRADE NEWDELHI_WIND NEWDELHI_PRES NEWDELHI_CI NEWDELHI_DP NEWDELHI_POCI REUNION_LAT REUNION_LON REUNION_TYPE REUNION_WIND REUNION_PRES REUNION_TNUM REUNION_CI REUNION_RMW REUNION_R34_NE REUNION_R34_SE REUNION_R34_SW REUNION_R34_NW REUNION_R50_NE REUNION_R50_SE REUNION_R50_SW REUNION_R50_NW REUNION_R64_NE REUNION_R64_SE REUNION_R64_SW REUNION_R64_NW BOM_LAT BOM_LON BOM_TYPE BOM_WIND BOM_PRES BOM_TNUM BOM_CI BOM_RMW BOM_R34_NE BOM_R34_SE BOM_R34_SW BOM_R34_NW BOM_R50_NE BOM_R50_SE BOM_R50_SW BOM_R50_NW BOM_R64_NE BOM_R64_SE BOM_R64_SW BOM_R64_NW BOM_ROCI BOM_POCI BOM_EYE BOM_POS_METHOD BOM_PRES_METHOD NADI_LAT NADI_LON NADI_CAT NADI_WIND NADI_PRES WELLINGTON_LAT WELLINGTON_LON WELLINGTON_WIND WELLINGTON_PRES DS824_LAT DS824_LON DS824_STAGE DS824_WIND DS824_PRES TD9636_LAT TD9636_LON TD9636_STAGE TD9636_WIND TD9636_PRES TD9635_LAT TD9635_LON TD9635_WIND TD9635_PRES TD9635_ROCI NEUMANN_LAT NEUMANN_LON NEUMANN_CLASS NEUMANN_WIND NEUMANN_PRES MLC_LAT MLC_LON MLC_CLASS MLC_WIND MLC_PRES USA_GUST BOM_GUST BOM_GUST_PER REUNION_GUST REUNION_GUST_PER USA_SEAHGT USA_SEARAD_NE USA_SEARAD_SE USA_SEARAD_SW USA_SEARAD_NW STORM_SPEED STORM_DIR
1959264N20292 1959 82 NA NA GRACIE 1959-09-20 12:00:00 TS 19.8000 -68.3000 25 1009 hurdat_atl main 113 69 O_____________ hurdat_atl AL081959 19.8000 -68.3000 TD 25 1009 -1 12 274
1959264N20292 1959 82 NA NA GRACIE 1959-09-20 15:00:00 TS 19.8404 -68.9400 main 69 53 P_____________ AL081959 19.8404 -68.9400 TD 25 1008 -1 12 275
1959264N20292 1959 82 NA NA GRACIE 1959-09-20 18:00:00 TS 19.9000 -69.6000 25 1008 hurdat_atl main 53 33 O_____________ hurdat_atl AL081959 19.9000 -69.6000 TD 25 1008 -1 13 277
1959264N20292 1959 82 NA NA GRACIE 1959-09-20 21:00:00 TS 19.9923 -70.2925 main 35 22 P_____________ AL081959 19.9923 -70.2925 TD 25 -1 13 279
1959264N20292 1959 82 NA NA GRACIE 1959-09-21 00:00:00 TS 20.1000 -71.0000 25 hurdat_atl main 33 33 O_____________ hurdat_atl AL081959 20.1000 -71.0000 TD 25 -1 13 279
1959264N20292 1959 82 NA NA GRACIE 1959-09-21 03:00:00 TS 20.1923 -71.7077 main 44 44 P_____________ AL081959 20.1923 -71.7077 TD 27 -1 13 279
1959264N20292 1959 82 NA NA GRACIE 1959-09-21 06:00:00 TS 20.3000 -72.4000 30 hurdat_atl main 49 44 O_____________ hurdat_atl AL081959 20.3000 -72.4000 TD 30 -1 13 280
1959264N20292 1959 82 NA NA GRACIE 1959-09-21 09:00:00 TS 20.4202 -73.1250 main 55 33 P_____________ AL081959 20.4202 -73.1250 TD 30 -1 13 284
1959264N20292 1959 82 NA NA GRACIE 1959-09-21 12:00:00 TS 20.6000 -73.7000 30 1011 hurdat_atl main 35 30 O_____________ hurdat_atl AL081959 20.6000 -73.7000 TD 30 1011 -1 9 299
1959264N20292 1959 82 NA NA GRACIE 1959-09-21 15:00:00 TS 20.8771 -73.9975 main 33 31 P_____________ AL081959 20.8771 -73.9975 TD 30 1010 -1 7 328
1959264N20292 1959 82 NA NA GRACIE 1959-09-21 18:00:00 TS 21.2000 -74.1000 30 1009 hurdat_atl main 42 42 O_____________ hurdat_atl AL081959 21.2000 -74.1000 TD 30 1009 -1 7 346
1959264N20292 1959 82 NA NA GRACIE 1959-09-21 21:00:00 TS 21.5149 -74.1675 main 68 68 P_____________ AL081959 21.5149 -74.1675 TD 32 -1 6 1
1959264N20292 1959 82 NA NA GRACIE 1959-09-22 00:00:00 TS 21.8000 -74.1000 35 hurdat_atl main 88 88 O_____________ hurdat_atl AL081959 21.8000 -74.1000 TS 35 0 6 28
1959264N20292 1959 82 NA NA GRACIE 1959-09-22 03:00:00 TS 22.0151 -73.8801 main 102 101 P_____________ AL081959 22.0151 -73.8801 TS 40 0 6 49
1959264N20292 1959 82 NA NA GRACIE 1959-09-22 06:00:00 TS 22.2000 -73.6000 45 hurdat_atl main 119 116 O_____________ hurdat_atl AL081959 22.2000 -73.6000 TS 45 0 6 51
1959264N20292 1959 82 NA NA GRACIE 1959-09-22 09:00:00 TS 22.3850 -73.3774 main 135 134 P_____________ AL081959 22.3850 -73.3774 TS 50 0 5 43
1959264N20292 1959 82 NA NA GRACIE 1959-09-22 12:00:00 TS 22.6000 -73.2000 55 hurdat_atl main 156 156 O_____________ hurdat_atl AL081959 22.6000 -73.2000 TS 55 0 6 30
1959264N20292 1959 82 NA NA GRACIE 1959-09-22 15:00:00 TS 22.8775 -73.0700 main 190 190 P_____________ AL081959 22.8775 -73.0700 TS 60 0 6 17
1959264N20292 1959 82 NA NA GRACIE 1959-09-22 18:00:00 TS 23.2000 -73.0000 65 997 hurdat_atl main 223 223 O_____________ hurdat_atl AL081959 23.2000 -73.0000 HU 65 997 1 7 7
1959264N20292 1959 82 NA NA GRACIE 1959-09-22 21:00:00 TS 23.5575 -72.9700 main 268 268 P_____________ AL081959 23.5575 -72.9700 HU 65 998 1 7 0
1959264N20292 1959 82 NA NA GRACIE 1959-09-23 00:00:00 TS 23.9000 -73.0000 65 1000 hurdat_atl main 301 301 O_____________ hurdat_atl AL081959 23.9000 -73.0000 HU 65 1000 1 6 351
1959264N20292 1959 82 NA NA GRACIE 1959-09-23 03:00:00 TS 24.1650 -73.0775 main 335 335 P_____________ AL081959 24.1650 -73.0775 HU 65 1001 1 5 340
1959264N20292 1959 82 NA NA GRACIE 1959-09-23 06:00:00 TS 24.4000 -73.2000 65 1002 hurdat_atl main 357 357 O_____________ hurdat_atl AL081959 24.4000 -73.2000 HU 65 1002 1 5 335
1959264N20292 1959 82 NA NA GRACIE 1959-09-23 09:00:00 TS 24.6499 -73.3276 main 380 380 P_____________ AL081959 24.6499 -73.3276 HU 65 1 6 331
1959264N20292 1959 82 NA NA GRACIE 1959-09-23 12:00:00 TS 24.9000 -73.5000 65 hurdat_atl main 414 409 O_____________ hurdat_atl AL081959 24.9000 -73.5000 HU 65 1 6 324
1959264N20292 1959 82 NA NA GRACIE 1959-09-23 15:00:00 TS 25.1575 -73.7275 main 410 386 P_____________ AL081959 25.1575 -73.7275 HU 62 0 7 318
1959264N20292 1959 82 NA NA GRACIE 1959-09-23 18:00:00 TS 25.4000 -74.0000 60 hurdat_atl main 386 363 O_____________ hurdat_atl AL081959 25.4000 -74.0000 TS 60 0 7 311
1959264N20292 1959 82 NA NA GRACIE 1959-09-23 21:00:00 TS 25.6075 -74.3001 main 363 343 P_____________ AL081959 25.6075 -74.3001 TS 57 0 7 306
1959264N20292 1959 82 NA NA GRACIE 1959-09-24 00:00:00 TS 25.8000 -74.6000 55 1001 hurdat_atl main 343 325 O_____________ hurdat_atl AL081959 25.8000 -74.6000 TS 55 1001 0 7 308
1959264N20292 1959 82 NA NA GRACIE 1959-09-24 03:00:00 TS 26.0075 -74.8725 main 325 315 P_____________ AL081959 26.0075 -74.8725 TS 55 1000 0 6 312
1959264N20292 1959 82 NA NA GRACIE 1959-09-24 06:00:00 TS 26.2000 -75.1000 55 hurdat_atl main 315 301 I_____________ hurdat_atl AL081959 26.2000 -75.1000 TS 55 1000 0 5 313
1959264N20292 1959 82 NA NA GRACIE 1959-09-24 09:00:00 TS 26.3500 -75.2801 main 301 297 P_____________ AL081959 26.3500 -75.2801 TS 55 1000 0 4 318
1959264N20292 1959 82 NA NA GRACIE 1959-09-24 12:00:00 TS 26.5000 -75.4000 55 1000 hurdat_atl main 303 300 O_____________ hurdat_atl AL081959 26.5000 -75.4000 TS 55 1000 0 4 332
1959264N20292 1959 82 NA NA GRACIE 1959-09-24 15:00:00 TS 26.6850 -75.4800 main 307 307 P_____________ AL081959 26.6850 -75.4800 TS 52 1001 0 4 348
1959264N20292 1959 82 NA NA GRACIE 1959-09-24 18:00:00 TS 26.9000 -75.5000 50 hurdat_atl main 320 320 I_____________ hurdat_atl AL081959 26.9000 -75.5000 TS 50 1002 0 5 3
1959264N20292 1959 82 NA NA GRACIE 1959-09-24 21:00:00 TS 27.1575 -75.4726 main 342 342 P_____________ AL081959 27.1575 -75.4726 TS 47 1003 0 5 10
1959264N20292 1959 82 NA NA GRACIE 1959-09-25 00:00:00 TS 27.4000 -75.4000 45 1004 hurdat_atl main 364 364 O_____________ hurdat_atl AL081959 27.4000 -75.4000 TS 45 1004 0 4 20
1959264N20292 1959 82 NA NA GRACIE 1959-09-25 03:00:00 TS 27.5725 -75.3075 main 387 387 P_____________ AL081959 27.5725 -75.3075 TS 45 1002 0 3 30
1959264N20292 1959 82 NA NA GRACIE 1959-09-25 06:00:00 TS 27.7000 -75.2000 45 1000 hurdat_atl main 402 402 O_____________ hurdat_atl AL081959 27.7000 -75.2000 TS 45 1000 0 3 38
1959264N20292 1959 82 NA NA GRACIE 1959-09-25 09:00:00 TS 27.8150 -75.1000 main 417 417 P_____________ AL081959 27.8150 -75.1000 TS 47 999 0 3 42
1959264N20292 1959 82 NA NA GRACIE 1959-09-25 12:00:00 TS 27.9000 -75.0000 50 hurdat_atl main 432 432 I_____________ hurdat_atl AL081959 27.9000 -75.0000 TS 50 998 0 2 45
1959264N20292 1959 82 NA NA GRACIE 1959-09-25 15:00:00 TS 27.9800 -74.9075 main 446 446 P_____________ AL081959 27.9800 -74.9075 TS 50 997 0 2 60
1959264N20292 1959 82 NA NA GRACIE 1959-09-25 18:00:00 TS 28.0000 -74.8000 50 997 hurdat_atl main 453 453 O_____________ hurdat_atl AL081959 28.0000 -74.8000 TS 50 997 0 2 109
1959264N20292 1959 82 NA NA GRACIE 1959-09-25 21:00:00 TS 27.9075 -74.6649 main 453 453 P_____________ AL081959 27.9075 -74.6649 TS 47 998 0 3 127
1959264N20292 1959 82 NA NA GRACIE 1959-09-26 00:00:00 TS 27.8000 -74.5000 45 1000 hurdat_atl main 460 460 O_____________ hurdat_atl AL081959 27.8000 -74.5000 TS 45 1000 0 3 112
1959264N20292 1959 82 NA NA GRACIE 1959-09-26 03:00:00 TS 27.7849 -74.3226 main 475 475 P_____________ AL081959 27.7849 -74.3226 TS 47 0 4 90
1959264N20292 1959 82 NA NA GRACIE 1959-09-26 06:00:00 TS 27.8000 -74.1000 50 hurdat_atl main 491 491 O_____________ hurdat_atl AL081959 27.8000 -74.1000 TS 50 0 5 89
1959264N20292 1959 82 NA NA GRACIE 1959-09-26 09:00:00 TS 27.7926 -73.8074 main 515 515 P_____________ AL081959 27.7926 -73.8074 TS 52 0 5 90
1959264N20292 1959 82 NA NA GRACIE 1959-09-26 12:00:00 TS 27.8000 -73.5000 55 hurdat_atl main 539 539 O_____________ hurdat_atl AL081959 27.8000 -73.5000 TS 55 0 5 85
1959264N20292 1959 82 NA NA GRACIE 1959-09-26 15:00:00 TS 27.8425 -73.2051 main 564 564 P_____________ AL081959 27.8425 -73.2051 TS 57 0 5 77
1959264N20292 1959 82 NA NA GRACIE 1959-09-26 18:00:00 TS 27.9000 -73.0000 60 hurdat_atl main 587 587 O_____________ hurdat_atl AL081959 27.9000 -73.0000 TS 60 0 3 68
1959264N20292 1959 82 NA NA GRACIE 1959-09-26 21:00:00 TS 27.9423 -72.9250 main 595 593 P_____________ AL081959 27.9423 -72.9250 TS 60 0 1 0
1959264N20292 1959 82 NA NA GRACIE 1959-09-27 00:00:00 TS 28.0000 -73.0000 60 997 hurdat_atl main 593 582 O_____________ hurdat_atl AL081959 28.0000 -73.0000 TS 60 997 0 3 301
1959264N20292 1959 82 NA NA GRACIE 1959-09-27 03:00:00 TS 28.0926 -73.2124 main 582 565 P_____________ AL081959 28.0926 -73.2124 TS 62 0 5 294
1959264N20292 1959 82 NA NA GRACIE 1959-09-27 06:00:00 TS 28.2000 -73.5000 65 hurdat_atl main 565 556 O_____________ hurdat_atl AL081959 28.2000 -73.5000 HU 65 1 5 294
1959264N20292 1959 82 NA NA GRACIE 1959-09-27 09:00:00 TS 28.3075 -73.7500 main 556 541 P_____________ AL081959 28.3075 -73.7500 HU 65 1 5 294
1959264N20292 1959 82 NA NA GRACIE 1959-09-27 12:00:00 TS 28.4000 -74.0000 65 hurdat_atl main 541 527 O_____________ hurdat_atl AL081959 28.4000 -74.0000 HU 65 1 5 290
1959264N20292 1959 82 NA NA GRACIE 1959-09-27 15:00:00 TS 28.4650 -74.2500 main 527 514 P_____________ AL081959 28.4650 -74.2500 HU 67 1 5 283
1959264N20292 1959 82 NA NA GRACIE 1959-09-27 18:00:00 TS 28.5000 -74.5000 70 hurdat_atl main 514 501 O_____________ hurdat_atl AL081959 28.5000 -74.5000 HU 70 1 4 274
1959264N20292 1959 82 NA NA GRACIE 1959-09-27 21:00:00 TS 28.4925 -74.7502 main 494 482 P_____________ AL081959 28.4925 -74.7502 HU 72 1 4 270
1959264N20292 1959 82 NA NA GRACIE 1959-09-28 00:00:00 TS 28.5000 -75.0000 75 981 hurdat_atl main 482 476 O_____________ hurdat_atl AL081959 28.5000 -75.0000 HU 75 981 1 4 282
1959264N20292 1959 82 NA NA GRACIE 1959-09-28 03:00:00 TS 28.5848 -75.2275 main 479 468 P_____________ AL081959 28.5848 -75.2275 HU 77 980 1 5 294
1959264N20292 1959 82 NA NA GRACIE 1959-09-28 06:00:00 TS 28.7000 -75.5000 80 979 hurdat_atl main 472 449 O_____________ hurdat_atl AL081959 28.7000 -75.5000 HU 80 979 1 6 289
1959264N20292 1959 82 NA NA GRACIE 1959-09-28 09:00:00 TS 28.7776 -75.8778 main 449 411 P_____________ AL081959 28.7776 -75.8778 HU 85 975 2 7 286
1959264N20292 1959 82 NA NA GRACIE 1959-09-28 12:00:00 TS 28.9000 -76.3000 90 hurdat_atl main 411 375 I_____________ hurdat_atl AL081959 28.9000 -76.3000 HU 90 971 2 8 296
1959264N20292 1959 82 NA NA GRACIE 1959-09-28 15:00:00 TS 29.1197 -76.6852 main 375 345 P_____________ AL081959 29.1197 -76.6852 HU 97 967 3 9 306
1959264N20292 1959 82 NA NA GRACIE 1959-09-28 18:00:00 TS 29.4000 -77.1000 105 964 hurdat_atl main 345 311 O_____________ hurdat_atl AL081959 29.4000 -77.1000 HU 105 964 3 10 306
1959264N20292 1959 82 NA NA GRACIE 1959-09-28 21:00:00 TS 29.6925 -77.5851 main 311 286 P_____________ AL081959 29.6925 -77.5851 HU 107 960 3 11 305
1959264N20292 1959 82 NA NA GRACIE 1959-09-29 00:00:00 TS 30.0000 -78.1000 110 957 hurdat_atl main 286 253 O_____________ hurdat_atl AL081959 30.0000 -78.1000 HU 110 957 3 11 303
1959264N20292 1959 82 NA NA GRACIE 1959-09-29 03:00:00 TS 30.2700 -78.6230 main 259 219 P_____________ AL081959 30.2700 -78.6230 HU 112 954 3 11 305
1959264N20292 1959 82 NA NA GRACIE 1959-09-29 06:00:00 TS 30.6000 -79.1000 115 951 hurdat_atl main 219 166 O_____________ hurdat_atl AL081959 30.6000 -79.1000 HU 115 951 4 11 317
1959264N20292 1959 82 NA NA GRACIE 1959-09-29 09:00:00 TS 31.0639 -79.4707 main 159 108 P_____________ AL081959 31.0639 -79.4707 HU 115 951 4 12 329
1959264N20292 1959 82 NA NA GRACIE 1959-09-29 12:00:00 TS 31.6000 -79.8000 115 hurdat_atl main 108 38 I_____________ hurdat_atl AL081959 31.6000 -79.8000 HU 115 951 4 13 336
1959264N20292 1959 82 NA NA GRACIE 1959-09-29 15:00:00 TS 32.2643 -80.1024 main 29 0 P_____________ AL081959 32.2643 -80.1024 HU 115 951 4 12 331
1959264N20292 1959 82 NA NA GRACIE 1959-09-29 17:00:00 TS 32.5000 -80.4000 115 951 hurdat_atl main 0 0 O_____________ hurdat_atl AL081959 32.5000 -80.4000 L HU 115 951 4 10 299
1959264N20292 1959 82 NA NA GRACIE 1959-09-29 18:00:00 TS 32.5000 -80.6000 115 951 hurdat_atl main 0 0 O_____________ hurdat_atl AL081959 32.5000 -80.6000 HU 115 951 4 9 318
1959264N20292 1959 82 NA NA GRACIE 1959-09-29 21:00:00 TS 32.9437 -80.8660 main 0 0 P_____________ AL081959 32.9437 -80.8660 HU 90 2 12 348
1959264N20292 1959 82 NA NA GRACIE 1959-09-30 00:00:00 TS 33.7000 -80.9000 65 hurdat_atl main 0 0 O_____________ hurdat_atl AL081959 33.7000 -80.9000 HU 65 1 13 352
1959264N20292 1959 82 NA NA GRACIE 1959-09-30 03:00:00 TS 34.2500 -81.1001 main 0 0 P_____________ AL081959 34.2500 -81.1001 HU 55 0 12 343
1959264N20292 1959 82 NA NA GRACIE 1959-09-30 06:00:00 TS 34.8000 -81.3000 45 hurdat_atl main 0 0 O_____________ hurdat_atl AL081959 34.8000 -81.3000 TS 45 0 11 344
1959264N20292 1959 82 NA NA GRACIE 1959-09-30 09:00:00 TS 35.3550 -81.4726 main 0 0 P_____________ AL081959 35.3550 -81.4726 TS 40 0 12 348
1959264N20292 1959 82 NA NA GRACIE 1959-09-30 12:00:00 TS 36.0000 -81.6000 35 hurdat_atl main 0 0 O_____________ hurdat_atl AL081959 36.0000 -81.6000 TS 35 0 15 352
1959264N20292 1959 82 NA NA GRACIE 1959-09-30 15:00:00 TS 36.8198 -81.7234 main 0 0 P_____________ AL081959 36.8198 -81.7234 TS 32 -1 17 357
1959264N20292 1959 82 NA NA GRACIE 1959-09-30 18:00:00 ET 37.7000 -81.7000 30 hurdat_atl main 0 0 O_____________ hurdat_atl AL081959 37.7000 -81.7000 EX 30 -4 17 6
1959264N20292 1959 82 NA NA GRACIE 1959-09-30 21:00:00 ET 38.5289 -81.4988 main 0 0 P_____________ AL081959 38.5289 -81.4988 EX 27 -4 17 19
1959264N20292 1959 82 NA NA GRACIE 1959-10-01 00:00:00 ET 39.3000 -81.0000 25 hurdat_atl main 0 0 O_____________ hurdat_atl AL081959 39.3000 -81.0000 EX 25 -4 18 35
1959264N20292 1959 82 NA NA GRACIE 1959-10-01 03:00:00 ET 39.9881 -80.1554 main 0 0 P_____________ AL081959 39.9881 -80.1554 EX 25 -4 20 48
1959264N20292 1959 82 NA NA GRACIE 1959-10-01 06:00:00 ET 40.6000 -79.1000 25 hurdat_atl main 0 0 O_____________ hurdat_atl AL081959 40.6000 -79.1000 EX 25 -4 20 53
1959264N20292 1959 82 NA NA GRACIE 1959-10-01 09:00:00 ET 41.1867 -78.0714 main 0 0 P_____________ AL081959 41.1867 -78.0714 EX 25 -4 19 55
1959264N20292 1959 82 NA NA GRACIE 1959-10-01 12:00:00 ET 41.7000 -77.0000 25 hurdat_atl main 0 0 O_____________ hurdat_atl AL081959 41.7000 -77.0000 EX 25 -4 19 59
1959264N20292 1959 82 NA NA GRACIE 1959-10-01 15:00:00 ET 42.1502 -75.9511 main 0 0 P_____________ AL081959 42.1502 -75.9511 EX 25 -4 18 64
1959264N20292 1959 82 NA NA GRACIE 1959-10-01 18:00:00 ET 42.5000 -74.8000 25 hurdat_atl main 0 0 O_____________ hurdat_atl AL081959 42.5000 -74.8000 EX 25 -4 19 71
1959264N20292 1959 82 NA NA GRACIE 1959-10-01 21:00:00 ET 42.7485 -73.5336 main 0 0 P_____________ AL081959 42.7485 -73.5336 EX 25 -4 21 79
1959264N20292 1959 82 NA NA GRACIE 1959-10-02 00:00:00 ET 42.9000 -72.0000 25 hurdat_atl main 0 0 O_____________ hurdat_atl AL081959 42.9000 -72.0000 EX 25 -4 25 85
1959264N20292 1959 82 NA NA GRACIE 1959-10-02 03:00:00 ET 42.9782 -70.1332 main 47 47 P_____________ AL081959 42.9782 -70.1332 EX 25 -4 29 88
1959264N20292 1959 82 NA NA GRACIE 1959-10-02 06:00:00 ET 43.0000 -68.0000 25 hurdat_atl main 139 57 O_____________ hurdat_atl AL081959 43.0000 -68.0000 EX 25 -4 32 89
1959264N20292 1959 82 NA NA GRACIE 1959-10-02 09:00:00 ET 43.0115 -65.7311 main 55 55 P_____________ AL081959 43.0115 -65.7311 EX 25 -4 34 90
1959264N20292 1959 82 NA NA GRACIE 1959-10-02 12:00:00 ET 43.0000 -63.4000 25 hurdat_atl main 143 O_____________ hurdat_atl AL081959 43.0000 -63.4000 EX 25 -4 34 90

IBTrACS Databaseについて

本データベースは、米国NOAAが公開する1842年以降の世界の熱帯低気圧のベストトラックデータアーカイブInternational Best Track Archive for Climate Stewardship (IBTrACS)を、ウェブで閲覧しやすい形式に変換したものです。

最終更新日:2021-10-25